createdAt,value
2023-03-25T00:01:13.995Z,16.11
2023-03-25T00:03:42.440Z,16.10
2023-03-25T00:06:12.359Z,16.07
2023-03-25T00:08:39.294Z,16.05
2023-03-25T00:11:07.006Z,15.91
2023-03-25T00:13:34.691Z,15.95
2023-03-25T00:16:02.922Z,15.95
2023-03-25T00:18:33.838Z,15.93
2023-03-25T00:21:02.573Z,15.84
2023-03-25T00:23:31.330Z,15.76
2023-03-25T00:26:01.658Z,15.66
2023-03-25T00:28:30.946Z,15.59
2023-03-25T00:31:06.505Z,15.56
2023-03-25T00:33:35.399Z,15.59
2023-03-25T00:36:04.705Z,15.56
2023-03-25T00:38:35.099Z,15.61
2023-03-25T00:41:25.833Z,15.64
2023-03-25T00:43:57.660Z,15.67
2023-03-25T00:46:29.769Z,15.65
2023-03-25T00:48:58.377Z,15.63
2023-03-25T00:51:27.062Z,15.67
2023-03-25T00:53:56.990Z,15.68
2023-03-25T00:56:24.749Z,15.67
2023-03-25T00:58:54.506Z,15.67
2023-03-25T01:01:27.277Z,15.59
2023-03-25T01:03:58.933Z,15.47
2023-03-25T01:06:32.465Z,15.42
2023-03-25T01:09:00.464Z,15.38
2023-03-25T01:11:29.821Z,15.33
2023-03-25T01:13:59.654Z,15.26
2023-03-25T01:16:27.605Z,15.27
2023-03-25T01:18:55.814Z,15.22
2023-03-25T01:21:24.332Z,15.18
2023-03-25T01:23:51.761Z,15.18
2023-03-25T01:26:18.591Z,15.21
2023-03-25T01:28:45.746Z,15.16
2023-03-25T01:31:14.819Z,15.15
2023-03-25T01:33:41.991Z,15.14
2023-03-25T01:36:09.742Z,15.08
2023-03-25T01:38:37.269Z,15.01
2023-03-25T01:41:04.976Z,15.01
2023-03-25T01:43:31.959Z,14.95
2023-03-25T01:45:59.428Z,14.94
2023-03-25T01:48:40.740Z,14.93
2023-03-25T01:51:14.056Z,14.92
2023-03-25T01:53:41.782Z,14.71
2023-03-25T01:56:12.058Z,14.78
2023-03-25T01:58:39.485Z,14.75
2023-03-25T02:01:07.718Z,14.74
2023-03-25T02:03:37.337Z,14.75
2023-03-25T02:06:12.205Z,14.77
2023-03-25T02:08:41.590Z,14.76
2023-03-25T02:11:10.211Z,14.69
2023-03-25T02:13:40.376Z,14.78
2023-03-25T02:16:19.211Z,14.83
2023-03-25T02:19:01.468Z,14.82
2023-03-25T02:21:50.248Z,14.84
2023-03-25T02:24:26.076Z,14.78
2023-03-25T02:27:05.271Z,14.84
2023-03-25T02:29:43.263Z,14.86
2023-03-25T02:32:25.892Z,14.82
2023-03-25T02:35:40.305Z,14.88
2023-03-25T02:38:40.502Z,14.86
2023-03-25T02:41:16.702Z,14.86
2023-03-25T02:43:51.585Z,14.88
2023-03-25T02:46:19.542Z,14.87
2023-03-25T02:49:00.029Z,14.89
2023-03-25T02:51:35.896Z,14.80
2023-03-25T02:54:09.822Z,14.81
2023-03-25T02:56:39.632Z,14.81
2023-03-25T02:59:08.167Z,14.75
2023-03-25T03:01:36.416Z,14.62
2023-03-25T03:04:03.657Z,14.55
2023-03-25T03:06:33.977Z,14.53
2023-03-25T03:09:36.419Z,14.57
2023-03-25T03:12:32.177Z,14.61
2023-03-25T03:15:08.100Z,14.58
2023-03-25T03:18:08.031Z,14.61
2023-03-25T03:20:39.799Z,14.58
2023-03-25T03:23:11.027Z,14.58
2023-03-25T03:25:51.404Z,14.45
2023-03-25T03:28:54.361Z,14.48
2023-03-25T03:31:48.509Z,14.51
2023-03-25T03:34:41.142Z,14.47
2023-03-25T03:37:09.994Z,14.44
2023-03-25T03:39:38.437Z,14.48
2023-03-25T03:42:16.078Z,14.45
2023-03-25T03:44:50.272Z,14.47
2023-03-25T03:47:22.686Z,14.41
2023-03-25T03:50:18.711Z,14.45
2023-03-25T03:53:07.273Z,14.42
2023-03-25T03:55:58.114Z,14.29
2023-03-25T03:58:29.955Z,14.26
2023-03-25T04:01:04.155Z,14.30
2023-03-25T04:03:39.052Z,14.30
2023-03-25T04:06:18.171Z,14.29
2023-03-25T04:08:58.932Z,14.26
2023-03-25T04:11:40.411Z,14.22
2023-03-25T04:14:09.113Z,14.20
2023-03-25T04:16:37.564Z,14.15
2023-03-25T04:19:05.888Z,14.16
2023-03-25T04:21:33.745Z,14.20
2023-03-25T04:24:01.746Z,14.20
2023-03-25T04:26:34.052Z,14.19
2023-03-25T04:29:02.077Z,14.14
2023-03-25T04:31:33.106Z,14.13
2023-03-25T04:34:00.655Z,14.16
2023-03-25T04:36:37.886Z,14.22
2023-03-25T04:39:05.196Z,14.17
2023-03-25T04:41:33.630Z,14.23
2023-03-25T04:44:00.515Z,14.23
2023-03-25T04:46:27.403Z,14.25
2023-03-25T04:48:57.003Z,14.22
2023-03-25T04:51:23.911Z,14.20
2023-03-25T04:53:50.666Z,14.21
2023-03-25T04:56:18.448Z,14.19
2023-03-25T04:58:46.354Z,14.20
2023-03-25T05:01:31.339Z,14.21
2023-03-25T05:04:05.758Z,14.20
2023-03-25T05:06:41.808Z,14.17
2023-03-25T05:09:14.405Z,14.20
2023-03-25T05:11:42.801Z,14.21
2023-03-25T05:14:11.267Z,14.09
2023-03-25T05:16:38.925Z,14.12
2023-03-25T05:19:06.735Z,14.13
2023-03-25T05:21:36.084Z,14.10
2023-03-25T05:24:10.787Z,14.05
2023-03-25T05:26:39.799Z,14.08
2023-03-25T05:29:15.296Z,14.09
2023-03-25T05:31:46.703Z,14.11
2023-03-25T05:34:16.992Z,14.11
2023-03-25T05:36:47.784Z,14.13
2023-03-25T05:39:15.410Z,14.11
2023-03-25T05:41:42.353Z,14.11
2023-03-25T05:44:15.555Z,14.10
2023-03-25T05:46:42.527Z,14.09
2023-03-25T05:49:09.331Z,14.07
2023-03-25T05:51:39.347Z,14.06
2023-03-25T05:54:11.814Z,14.05
2023-03-25T05:56:39.107Z,14.01
2023-03-25T05:59:06.003Z,13.96
2023-03-25T06:01:37.807Z,13.94
2023-03-25T06:04:04.959Z,13.97
2023-03-25T06:06:34.127Z,14.03
2023-03-25T06:09:02.431Z,14.05
2023-03-25T06:11:29.664Z,14.07
2023-03-25T06:13:57.145Z,14.00
2023-03-25T06:16:29.885Z,13.99
2023-03-25T06:18:59.982Z,13.98
2023-03-25T06:21:32.975Z,13.94
2023-03-25T06:24:01.436Z,14.07
2023-03-25T06:26:28.420Z,14.14
2023-03-25T06:28:55.402Z,14.23
2023-03-25T06:31:27.795Z,14.34
2023-03-25T06:33:56.229Z,14.44
2023-03-25T06:36:25.831Z,14.50
2023-03-25T06:38:53.651Z,14.60
2023-03-25T06:41:21.997Z,14.66
2023-03-25T06:44:08.365Z,14.74
2023-03-25T06:46:46.955Z,14.84
2023-03-25T06:49:32.317Z,14.84
2023-03-25T06:52:00.104Z,14.89
2023-03-25T06:54:26.817Z,14.93
2023-03-25T06:56:53.548Z,15.01
2023-03-25T06:59:20.330Z,15.10
2023-03-25T07:01:47.081Z,15.20
2023-03-25T07:04:14.024Z,15.29
2023-03-25T07:06:41.192Z,15.37
2023-03-25T07:09:08.482Z,15.41
2023-03-25T07:11:35.610Z,15.42
2023-03-25T07:14:02.507Z,15.45
2023-03-25T07:16:33.311Z,15.54
2023-03-25T07:19:00.235Z,15.56
2023-03-25T07:21:28.988Z,15.71
2023-03-25T07:23:56.088Z,15.62
2023-03-25T07:26:22.872Z,15.71
2023-03-25T07:28:49.615Z,15.81
2023-03-25T07:31:17.037Z,15.81
2023-03-25T07:33:44.357Z,15.62
2023-03-25T07:36:14.554Z,15.43
2023-03-25T07:38:44.923Z,15.41
2023-03-25T07:41:13.139Z,15.62
2023-03-25T07:43:51.639Z,15.73
2023-03-25T07:46:25.449Z,15.76
2023-03-25T07:48:52.342Z,15.76
2023-03-25T07:51:20.337Z,15.87
2023-03-25T07:53:47.215Z,16.00
2023-03-25T07:56:14.793Z,16.00
2023-03-25T07:58:42.154Z,16.28
2023-03-25T08:01:09.017Z,16.41
2023-03-25T08:03:38.758Z,16.58
2023-03-25T08:06:07.054Z,16.69
2023-03-25T08:08:34.421Z,16.81
2023-03-25T08:11:01.837Z,16.85
2023-03-25T08:13:28.884Z,16.95
2023-03-25T08:15:57.903Z,17.09
2023-03-25T08:18:25.074Z,17.28
2023-03-25T08:20:52.781Z,17.44
2023-03-25T08:23:20.494Z,17.62
2023-03-25T08:25:51.973Z,17.71
2023-03-25T08:28:23.652Z,17.87
2023-03-25T08:30:55.237Z,17.99
2023-03-25T08:33:27.296Z,18.09
2023-03-25T08:35:57.209Z,18.28
2023-03-25T08:38:25.521Z,18.45
2023-03-25T08:40:52.619Z,18.62
2023-03-25T08:43:19.372Z,18.71
2023-03-25T08:45:46.498Z,18.82
2023-03-25T08:48:13.418Z,18.93
2023-03-25T08:50:40.610Z,19.03
2023-03-25T08:53:07.559Z,19.12
2023-03-25T08:55:34.390Z,19.12
2023-03-25T08:58:06.213Z,19.17
2023-03-25T09:00:33.097Z,19.20
2023-03-25T09:03:00.884Z,19.30
2023-03-25T09:05:27.960Z,19.36
2023-03-25T09:07:54.681Z,19.42
2023-03-25T09:10:21.567Z,19.43
2023-03-25T09:12:48.393Z,19.51
2023-03-25T09:15:15.392Z,19.56
2023-03-25T09:17:43.008Z,19.63
2023-03-25T09:20:10.844Z,19.74
2023-03-25T09:22:39.843Z,19.81
2023-03-25T09:25:07.837Z,19.82
2023-03-25T09:27:38.114Z,19.85
2023-03-25T09:30:11.884Z,19.87
2023-03-25T09:32:40.002Z,19.84
2023-03-25T09:35:12.097Z,19.88
2023-03-25T09:37:52.223Z,19.84
2023-03-25T09:40:21.208Z,19.96
2023-03-25T09:43:04.469Z,19.94
2023-03-25T09:45:45.995Z,19.91
2023-03-25T09:48:32.976Z,19.82
2023-03-25T09:51:30.766Z,19.75
2023-03-25T09:54:25.972Z,19.81
2023-03-25T09:56:57.103Z,19.81
2023-03-25T09:59:33.989Z,19.71
2023-03-25T10:02:27.635Z,19.59
2023-03-25T10:05:00.543Z,19.54
2023-03-25T10:07:55.318Z,19.52
2023-03-25T10:10:32.246Z,19.56
2023-03-25T10:13:29.934Z,19.72
2023-03-25T10:16:21.774Z,19.71
2023-03-25T10:19:12.666Z,19.72
2023-03-25T10:22:18.576Z,19.75
2023-03-25T10:24:52.401Z,19.82
2023-03-25T10:27:34.290Z,19.89
2023-03-25T10:30:34.306Z,19.82
2023-03-25T10:33:12.870Z,19.89
2023-03-25T10:35:47.700Z,19.92
2023-03-25T10:38:24.408Z,20.07
2023-03-25T10:41:00.991Z,20.03
2023-03-25T10:43:29.895Z,20.01
2023-03-25T10:46:17.054Z,20.13
2023-03-25T10:48:46.086Z,20.15
2023-03-25T10:51:27.809Z,20.22
2023-03-25T10:53:54.634Z,20.22
2023-03-25T10:56:29.158Z,20.18
2023-03-25T10:58:58.088Z,20.30
2023-03-25T11:01:38.421Z,20.36
2023-03-25T11:04:08.369Z,20.45
2023-03-25T11:06:42.268Z,20.48
2023-03-25T11:09:23.703Z,20.57
2023-03-25T11:11:51.101Z,20.44
2023-03-25T11:14:24.768Z,20.45
2023-03-25T11:16:57.066Z,20.38
2023-03-25T11:19:31.105Z,20.45
2023-03-25T11:22:02.678Z,20.53
2023-03-25T11:24:42.279Z,20.51
2023-03-25T11:27:10.627Z,20.56
2023-03-25T11:29:38.144Z,20.35
2023-03-25T11:32:14.879Z,20.31
2023-03-25T11:34:44.636Z,20.34
2023-03-25T11:37:20.774Z,20.40
2023-03-25T11:39:55.987Z,20.41
2023-03-25T11:42:36.849Z,20.45
2023-03-25T11:45:04.713Z,20.47
2023-03-25T11:47:38.164Z,20.61
2023-03-25T11:50:07.120Z,20.67
2023-03-25T11:52:43.362Z,20.65
2023-03-25T11:55:18.884Z,20.67
2023-03-25T11:57:47.921Z,20.63
2023-03-25T12:00:34.177Z,20.65
2023-03-25T12:03:09.063Z,20.56
2023-03-25T12:05:36.042Z,20.39
2023-03-25T12:08:16.115Z,20.38
2023-03-25T12:10:52.307Z,20.33
2023-03-25T12:13:51.421Z,20.37
2023-03-25T12:16:55.114Z,20.30
2023-03-25T12:19:37.089Z,20.32
2023-03-25T12:22:51.998Z,20.04
2023-03-25T12:25:32.245Z,20.06
2023-03-25T12:28:11.547Z,19.98
2023-03-25T12:30:44.160Z,19.97
2023-03-25T12:33:41.267Z,19.87
2023-03-25T12:36:18.005Z,19.98
2023-03-25T12:38:58.730Z,20.00
2023-03-25T12:41:42.384Z,20.08
2023-03-25T12:44:09.142Z,20.12
2023-03-25T12:46:51.737Z,20.16
2023-03-25T12:50:03.018Z,20.14
2023-03-25T12:52:50.776Z,20.02
2023-03-25T12:55:36.277Z,19.93
2023-03-25T12:58:32.079Z,19.95
2023-03-25T13:01:04.740Z,20.01
2023-03-25T13:03:37.713Z,19.90
2023-03-25T13:06:13.424Z,19.97
2023-03-25T13:08:49.155Z,20.00
2023-03-25T13:11:22.646Z,19.98
2023-03-25T13:13:53.688Z,20.04
2023-03-25T13:16:27.798Z,20.03
2023-03-25T13:19:06.219Z,20.14
2023-03-25T13:21:38.277Z,20.09
2023-03-25T13:24:22.080Z,20.11
2023-03-25T13:26:53.113Z,20.11
2023-03-25T13:29:36.925Z,20.23
2023-03-25T13:32:10.258Z,20.08
2023-03-25T13:34:53.536Z,20.16
2023-03-25T13:37:37.633Z,20.29
2023-03-25T13:40:13.480Z,20.40
2023-03-25T13:42:58.609Z,20.49
2023-03-25T13:45:27.902Z,20.63
2023-03-25T13:48:03.403Z,20.65
2023-03-25T13:50:32.195Z,20.64
2023-03-25T13:53:08.046Z,20.67
2023-03-25T13:55:40.965Z,20.75
2023-03-25T13:58:32.948Z,20.67
2023-03-25T14:01:31.934Z,20.70
2023-03-25T14:04:29.201Z,20.70
2023-03-25T14:07:28.281Z,20.80
2023-03-25T14:10:30.778Z,20.84
2023-03-25T14:13:02.141Z,20.94
2023-03-25T14:15:33.942Z,21.01
2023-03-25T14:18:02.587Z,20.92
2023-03-25T14:20:40.319Z,20.83
2023-03-25T14:23:15.758Z,20.96
2023-03-25T14:25:46.744Z,20.95
2023-03-25T14:28:33.560Z,21.06
2023-03-25T14:31:12.237Z,20.83
2023-03-25T14:34:06.762Z,20.95
2023-03-25T14:36:39.489Z,20.76
2023-03-25T14:39:11.259Z,20.71
2023-03-25T14:41:56.726Z,20.85
2023-03-25T14:44:27.994Z,20.85
2023-03-25T14:47:21.014Z,20.83
2023-03-25T14:50:06.050Z,20.79
2023-03-25T14:52:40.573Z,20.81
2023-03-25T14:55:26.172Z,20.79
2023-03-25T14:58:00.785Z,20.90
2023-03-25T15:00:34.073Z,20.83
2023-03-25T15:03:12.051Z,20.89
2023-03-25T15:05:42.324Z,21.05
2023-03-25T15:08:09.699Z,21.07
2023-03-25T15:10:40.916Z,20.93
2023-03-25T15:13:21.552Z,21.07
2023-03-25T15:15:50.386Z,21.01
2023-03-25T15:18:35.166Z,20.84
2023-03-25T15:21:10.919Z,20.95
2023-03-25T15:23:45.020Z,21.09
2023-03-25T15:26:19.820Z,21.08
2023-03-25T15:28:53.417Z,21.25
2023-03-25T15:31:47.308Z,21.25
2023-03-25T15:34:37.387Z,21.29
2023-03-25T15:37:10.005Z,21.23
2023-03-25T15:39:56.125Z,21.24
2023-03-25T15:42:47.060Z,21.12
2023-03-25T15:45:26.415Z,20.98
2023-03-25T15:47:53.249Z,20.96
2023-03-25T15:50:54.382Z,20.91
2023-03-25T15:53:36.065Z,20.97
2023-03-25T15:56:13.700Z,20.91
2023-03-25T15:59:18.745Z,20.97
2023-03-25T16:01:49.415Z,21.03
2023-03-25T16:04:25.360Z,21.02
2023-03-25T16:06:56.769Z,21.04
2023-03-25T16:09:28.686Z,21.06
2023-03-25T16:12:02.969Z,21.05
2023-03-25T16:14:32.463Z,20.95
2023-03-25T16:17:03.453Z,20.80
2023-03-25T16:19:34.644Z,20.57
2023-03-25T16:22:03.811Z,20.61
2023-03-25T16:24:34.101Z,20.54
2023-03-25T16:27:24.369Z,20.38
2023-03-25T16:29:53.805Z,20.34
2023-03-25T16:32:24.816Z,20.19
2023-03-25T16:34:54.080Z,20.16
2023-03-25T16:37:22.181Z,20.15
2023-03-25T16:39:54.430Z,20.11
2023-03-25T16:42:36.651Z,20.10
2023-03-25T16:45:05.777Z,20.03
2023-03-25T16:47:33.545Z,19.92
2023-03-25T16:50:02.193Z,19.89
2023-03-25T16:52:33.172Z,19.92
2023-03-25T16:55:04.897Z,19.90
2023-03-25T16:57:37.961Z,19.92
2023-03-25T17:00:18.045Z,19.88
2023-03-25T17:02:48.538Z,19.89
2023-03-25T17:05:18.985Z,19.80
2023-03-25T17:07:48.324Z,19.78
2023-03-25T17:10:27.486Z,19.66
2023-03-25T17:12:59.337Z,19.62
2023-03-25T17:15:27.006Z,19.56
2023-03-25T17:18:01.909Z,19.50
2023-03-25T17:20:38.104Z,19.50
2023-03-25T17:23:19.128Z,19.31
2023-03-25T17:25:59.151Z,19.32
2023-03-25T17:28:40.032Z,19.28
2023-03-25T17:31:27.896Z,19.25
2023-03-25T17:34:08.129Z,19.19
2023-03-25T17:36:37.975Z,19.17
2023-03-25T17:39:13.510Z,19.05
2023-03-25T17:41:40.711Z,19.07
2023-03-25T17:44:07.787Z,18.99
2023-03-25T17:46:35.344Z,18.98
2023-03-25T17:49:02.540Z,18.96
2023-03-25T17:51:31.158Z,18.97
2023-03-25T17:53:58.083Z,18.92
2023-03-25T17:56:27.871Z,18.88
2023-03-25T17:59:00.649Z,18.83
2023-03-25T18:01:28.725Z,18.81
2023-03-25T18:03:55.936Z,18.73
2023-03-25T18:06:23.971Z,18.68
2023-03-25T18:08:50.913Z,18.66
2023-03-25T18:11:17.693Z,18.59
2023-03-25T18:13:47.980Z,18.54
2023-03-25T18:16:17.145Z,18.51
2023-03-25T18:18:44.022Z,18.52
2023-03-25T18:21:12.980Z,18.46
2023-03-25T18:23:41.036Z,18.46
2023-03-25T18:26:16.790Z,18.46
2023-03-25T18:28:44.759Z,18.44
2023-03-25T18:31:16.922Z,18.44
2023-03-25T18:33:46.247Z,18.42
2023-03-25T18:36:13.707Z,18.41
2023-03-25T18:38:41.442Z,18.36
2023-03-25T18:41:11.238Z,18.33
2023-03-25T18:43:38.141Z,18.33
2023-03-25T18:46:05.348Z,18.32
2023-03-25T18:48:32.526Z,18.31
2023-03-25T18:51:00.855Z,18.30
2023-03-25T18:53:29.505Z,18.27
2023-03-25T18:56:00.199Z,18.27
2023-03-25T18:58:32.931Z,18.24
2023-03-25T19:01:01.245Z,18.20
2023-03-25T19:03:31.759Z,18.18
2023-03-25T19:05:59.500Z,18.17
2023-03-25T19:08:27.923Z,18.13
2023-03-25T19:11:01.740Z,18.14
2023-03-25T19:13:35.147Z,18.13
2023-03-25T19:16:04.651Z,18.10
2023-03-25T19:18:32.961Z,18.08
2023-03-25T19:21:00.810Z,18.03
2023-03-25T19:23:27.721Z,18.03
2023-03-25T19:25:57.729Z,18.02
2023-03-25T19:28:25.015Z,17.99
2023-03-25T19:30:54.565Z,17.99
2023-03-25T19:33:21.835Z,18.04
2023-03-25T19:35:54.407Z,18.06
2023-03-25T19:38:23.053Z,18.06
2023-03-25T19:40:51.868Z,18.03
2023-03-25T19:43:18.919Z,18.06
2023-03-25T19:45:45.677Z,18.06
2023-03-25T19:48:12.453Z,18.04
2023-03-25T19:50:40.865Z,18.02
2023-03-25T19:53:07.965Z,18.00
2023-03-25T19:55:34.888Z,17.99
2023-03-25T19:58:02.375Z,17.91
2023-03-25T20:00:30.522Z,17.93
2023-03-25T20:03:00.635Z,17.94
2023-03-25T20:05:29.966Z,17.98
2023-03-25T20:07:57.282Z,17.93
2023-03-25T20:10:30.414Z,17.85
2023-03-25T20:12:57.837Z,17.81
2023-03-25T20:15:26.367Z,17.78
2023-03-25T20:17:55.208Z,17.75
2023-03-25T20:20:24.011Z,17.73
2023-03-25T20:22:53.318Z,17.70
2023-03-25T20:25:20.496Z,17.68
2023-03-25T20:27:47.617Z,17.67
2023-03-25T20:30:17.229Z,17.66
2023-03-25T20:32:46.527Z,17.64
2023-03-25T20:35:16.031Z,17.61
2023-03-25T20:37:44.512Z,17.59
2023-03-25T20:40:15.519Z,17.57
2023-03-25T20:42:44.860Z,17.59
2023-03-25T20:45:13.949Z,17.56
2023-03-25T20:47:41.741Z,17.51
2023-03-25T20:50:10.842Z,17.47
2023-03-25T20:52:38.190Z,17.38
2023-03-25T20:55:05.845Z,17.40
2023-03-25T20:57:33.297Z,17.36
2023-03-25T21:00:00.095Z,17.40
2023-03-25T21:02:27.335Z,17.34
2023-03-25T21:04:56.943Z,17.33
2023-03-25T21:07:29.236Z,17.30
2023-03-25T21:09:57.311Z,17.30
2023-03-25T21:12:32.935Z,17.26
2023-03-25T21:15:09.267Z,17.21
2023-03-25T21:17:37.055Z,17.08
2023-03-25T21:20:07.440Z,17.02
2023-03-25T21:22:34.700Z,16.96
2023-03-25T21:25:01.457Z,16.93
2023-03-25T21:27:42.391Z,16.81
2023-03-25T21:30:10.352Z,16.80
2023-03-25T21:32:38.485Z,16.69
2023-03-25T21:35:06.084Z,16.59
2023-03-25T21:37:37.803Z,16.57
2023-03-25T21:40:08.263Z,16.50
2023-03-25T21:42:38.388Z,16.49
2023-03-25T21:45:09.537Z,16.47
2023-03-25T21:47:36.844Z,16.52
2023-03-25T21:50:10.062Z,16.44
2023-03-25T21:52:38.691Z,16.51
2023-03-25T21:55:06.374Z,16.50
2023-03-25T21:57:37.806Z,16.46
2023-03-25T22:00:08.110Z,16.34
2023-03-25T22:02:38.871Z,16.26
2023-03-25T22:05:06.316Z,16.25
2023-03-25T22:07:33.149Z,16.19
2023-03-25T22:09:59.982Z,16.11
2023-03-25T22:12:27.296Z,16.00
2023-03-25T22:14:54.085Z,16.00
2023-03-25T22:17:21.044Z,15.91
2023-03-25T22:19:48.891Z,15.88
2023-03-25T22:22:19.372Z,15.89
2023-03-25T22:24:46.669Z,15.91
2023-03-25T22:27:13.899Z,15.78
2023-03-25T22:29:45.552Z,15.66
2023-03-25T22:32:12.335Z,15.62
2023-03-25T22:34:42.674Z,15.52
2023-03-25T22:37:09.484Z,15.47
2023-03-25T22:39:40.200Z,15.34
2023-03-25T22:42:08.417Z,15.29
2023-03-25T22:44:35.464Z,15.32
2023-03-25T22:47:03.308Z,15.24
2023-03-25T22:49:30.592Z,15.21
2023-03-25T22:51:57.394Z,15.28
2023-03-25T22:54:24.199Z,15.15
2023-03-25T22:56:54.116Z,15.28
2023-03-25T22:59:21.040Z,15.30
2023-03-25T23:01:48.047Z,15.24
2023-03-25T23:04:17.779Z,15.36
2023-03-25T23:06:53.859Z,15.40
2023-03-25T23:09:41.000Z,15.41
2023-03-25T23:12:15.399Z,15.43
2023-03-25T23:14:48.172Z,15.45
2023-03-25T23:17:15.644Z,15.54
2023-03-25T23:19:45.797Z,15.52
2023-03-25T23:22:13.219Z,15.56
2023-03-25T23:24:43.406Z,15.58
2023-03-25T23:27:12.146Z,15.58
2023-03-25T23:29:42.165Z,15.62
2023-03-25T23:32:10.953Z,15.63
2023-03-25T23:34:43.227Z,15.62
2023-03-25T23:37:28.931Z,15.64
2023-03-25T23:39:55.800Z,15.69
2023-03-25T23:42:22.769Z,15.59
2023-03-25T23:45:02.021Z,15.62
2023-03-25T23:47:31.433Z,15.66
2023-03-25T23:50:02.076Z,15.64
2023-03-25T23:52:33.415Z,15.68
2023-03-25T23:55:00.580Z,15.65
2023-03-25T23:57:30.178Z,15.58
